Flight Track Log - Related Links

Times and Time Zones

All times are in EDT time to prevent confusion due to time zone crossing. See the DAL1116 flight status page for this flight to view local times or setup timezone preferences in your user account.

Time Position Orientation Groundspeed Altitude Reporting Facility
EDT Latitude Longitude Course Direction KTS MPH feet Rate Location/Type
Tue 07:36:55 PM 36.1086 -115.1494 58° Northeast 176 203 3,200  Level Los Angeles Center
Tue 07:37:50 PM 36.1314 -115.1047 58° Northeast 201 231 4,600 1,268 Climbing Los Angeles Center
Tue 07:38:06 PM 36.1328 -115.0889 84° East 220 253 4,700 1,770 Climbing Los Angeles Center
Tue 07:38:51 PM 36.1383 -115.0172 84° East 265 305 6,400 2,226 Climbing Los Angeles Center
Tue 07:39:08 PM 36.1400 -114.9992 83° East 256 295 7,000 2,600 Climbing Los Angeles Center
Tue 07:39:51 PM 36.1494 -114.9203 82° East 282 325 9,000 2,226 Climbing Los Angeles Center
Tue 07:40:10 PM 36.1503 -114.9028 87° East 276 318 9,300 1,950 Climbing Los Angeles Center
Tue 07:41:11 PM 36.1622 -114.7969 82° East 306 352 11,600 2,780 Climbing Los Angeles Center
Tue 07:42:13 PM 36.1897 -114.6708 75° East 317 365 15,000 2,323 Climbing Los Angeles Center
Tue 07:43:15 PM 36.1886 -114.5583 91° East 325 374 16,400 1,161 Climbing Los Angeles Center
Tue 07:44:17 PM 36.1900 -114.4286 89° East 368 423 17,400 1,306 Climbing Los Angeles Center
Tue 07:45:19 PM 36.1917 -114.2869 89° East 404 465 19,100 1,597 Climbing Los Angeles Center
Tue 07:46:21 PM 36.2036 -114.1436 84° East 417 480 20,700 1,742 Climbing Los Angeles Center
Tue 07:47:23 PM 36.2214 -113.9986 81° East 425 489 22,700 1,548 Climbing Los Angeles Center
Tue 07:48:25 PM 36.2392 -113.8528 81° East 428 493 23,900 1,306 Climbing Los Angeles Center
Tue 07:49:27 PM 36.2600 -113.6742 82° East 436 502 25,400 1,210 Climbing Los Angeles Center
Tue 07:50:29 PM 36.2783 -113.5231 81° East 443 510 26,400 1,016 Climbing Los Angeles Center
Tue 07:51:31 PM 36.3217 -113.3803 69° East 442 509 27,500 1,016 Climbing Los Angeles Center
Tue 07:52:33 PM 36.3706 -113.2231 69° East 445 512 28,500 919 Climbing Los Angeles Center
Tue 07:53:35 PM 36.4167 -113.0803 68° East 448 516 29,400 919 Climbing Los Angeles Center
Tue 07:54:37 PM 36.4619 -112.9361 69° East 451 519 30,400 871 Climbing Los Angeles Center
Tue 07:55:39 PM 36.5078 -112.7914 68° East 452 520 31,200 1,065 Climbing Los Angeles Center
Tue 07:56:41 PM 36.5522 -112.6483 69° East 448 516 32,600 816 Climbing Los Angeles Center
Tue 07:57:44 PM 36.6056 -112.4794 68° East 442 509 32,900 194 Climbing Los Angeles Center
Tue 07:58:45 PM 36.6503 -112.3344 69° East 450 518 33,000 49 Climbing Los Angeles Center
Tue 07:59:47 PM 36.6939 -112.1906 69° East 448 516 33,000  Level Los Angeles Center
Tue 08:00:49 PM 36.7394 -112.0461 68° East 450 518 33,000  Level Los Angeles Center
Tue 08:01:17 PM 36.7653 -111.9575 70° East 452 520 33,000  Level Denver Center
Tue 08:02:19 PM 36.8106 -111.8131 69° East 451 519 33,000  Level Denver Center
Tue 08:03:21 PM 36.8544 -111.6669 69° East 452 520 33,000  Level Denver Center
Tue 08:04:22 PM 36.8994 -111.5217 69° East 451 519 33,000  Level Denver Center
Tue 08:05:24 PM 36.9436 -111.3772 69° East 449 517 33,000  Level Denver Center
Tue 08:06:26 PM 36.9822 -111.2336 71° East 443 510 33,000  Level Denver Center
Tue 08:07:27 PM 37.0258 -111.0869 70° East 451 519 33,000  Level Denver Center
Tue 08:08:29 PM 37.0783 -110.9103 70° East 452 520 33,000  Level Denver Center
Tue 08:09:31 PM 37.1219 -110.7614 70° East 456 525 33,000  Level Denver Center
Tue 08:10:32 PM 37.1639 -110.6131 70° East 454 522 33,000  Level Denver Center
Tue 08:11:34 PM 37.2081 -110.4650 69° East 455 524 33,000  Level Denver Center
Tue 08:12:36 PM 37.2506 -110.3142 70° East 459 528 33,000  Level Denver Center
Tue 08:13:37 PM 37.2981 -110.1472 70° East 453 521 33,000  Level Denver Center
Tue 08:14:39 PM 37.3392 -110.0044 70° East 453 521 33,000  Level Denver Center
Tue 08:15:41 PM 37.3861 -109.8397 70° East 450 518 33,000  Level Denver Center
Tue 08:16:42 PM 37.4250 -109.6972 71° East 450 518 33,000  Level Denver Center
Tue 08:17:44 PM 37.4647 -109.5578 70° East 444 511 33,000  Level Denver Center
Tue 08:18:46 PM 37.5100 -109.3947 71° East 443 510 33,000  Level Denver Center
Tue 08:19:47 PM 37.5483 -109.2547 71° East 442 509 33,000  Level Denver Center
Tue 08:20:49 PM 37.5939 -109.0886 71° East 449 517 33,000  Level Denver Center
Tue 08:21:51 PM 37.6328 -108.9494 71° East 442 509 33,000  Level Denver Center
Tue 08:22:52 PM 37.6778 -108.7817 71° East 449 517 33,000  Level Denver Center
Tue 08:23:54 PM 37.7158 -108.6361 72° East 455 524 33,000  Level Denver Center
Tue 08:24:56 PM 37.7542 -108.4933 71° East 451 519 33,000  Level Denver Center
Tue 08:25:57 PM 37.7992 -108.3267 71° East 450 518 33,000  Level Denver Center
Tue 08:26:59 PM 37.8372 -108.1839 71° East 448 516 33,000  Level Denver Center
Tue 08:28:01 PM 37.8819 -108.0150 71° East 454 522 33,000  Level Denver Center
Tue 08:29:03 PM 37.9189 -107.8711 72° East 451 519 33,000  Level Denver Center
Tue 08:30:04 PM 37.9639 -107.7017 71° East 454 522 33,000  Level Denver Center
Tue 08:31:06 PM 38.0008 -107.5581 72° East 451 519 33,000  Level Denver Center
Tue 08:32:08 PM 38.0392 -107.4111 72° East 457 526 33,000  Level Denver Center
Tue 08:33:09 PM 38.0847 -107.2308 72° East 459 528 33,000  Level Denver Center
Tue 08:34:11 PM 38.1203 -107.0892 72° East 457 526 33,000  Level Denver Center
Tue 08:35:13 PM 38.1603 -106.9342 72° East 462 532 33,000  Level Denver Center
Tue 08:36:14 PM 38.2017 -106.7633 73° East 458 527 33,000  Level Denver Center
Tue 08:37:28 PM 38.2392 -106.6144 72° East 465 535 33,000  Level Denver Center
Tue 08:38:30 PM 38.2836 -106.4364 72° East 466 536 33,000  Level Denver Center
Tue 08:39:32 PM 38.3289 -106.2483 73° East 466 536 33,000  Level Denver Center
Tue 08:40:33 PM 38.3675 -106.0928 72° East 467 537 33,000  Level Denver Center
Tue 08:41:35 PM 38.4053 -105.9389 73° East 472 543 33,000  Level Denver Center
Tue 08:42:36 PM 38.4378 -105.8025 73° East 475 547 33,000 98 Level Denver Center
Tue 08:43:38 PM 38.4817 -105.6164 73° East 467 537 33,200 532 Climbing Denver Center
Tue 08:44:40 PM 38.5094 -105.4275 79° East 462 532 34,100 823 Climbing Denver Center
Tue 08:45:42 PM 38.5228 -105.2636 84° East 460 529 34,900 439 Climbing Denver Center
Tue 08:46:43 PM 38.5356 -105.1014 84° East 457 526 35,000 49 Climbing Denver Center
Tue 08:47:45 PM 38.5489 -104.9328 84° East 469 540 35,000  Level Denver Center
Tue 08:48:47 PM 38.5628 -104.7636 84° East 473 544 35,000  Level Denver Center
Tue 08:49:48 PM 38.5750 -104.5964 85° East 471 542 35,000  Level Denver Center
Tue 08:50:50 PM 38.5867 -104.4294 85° East 468 539 35,000  Level Denver Center
Tue 08:51:51 PM 38.5997 -104.2619 84° East 470 541 35,000  Level Denver Center
Tue 08:52:53 PM 38.6114 -104.0772 85° East 466 536 35,000  Level Denver Center
Tue 08:53:55 PM 38.6233 -103.9169 85° East 469 540 35,000  Level Denver Center
Tue 08:54:56 PM 38.6356 -103.7272 85° East 477 549 35,000  Level Denver Center
Tue 08:55:58 PM 38.6458 -103.5650 85° East 476 548 35,000  Level Denver Center
Tue 08:57:12 PM 38.6594 -103.3614 85° East 477 549 35,000  Level Denver Center
Tue 08:58:13 PM 38.6706 -103.1914 85° East 477 549 35,000  Level Denver Center
Tue 08:59:15 PM 38.6803 -103.0214 86° East 478 550 35,000  Level Denver Center
Tue 09:00:16 PM 38.6908 -102.8500 85° East 478 550 35,000  Level Denver Center
Tue 09:01:18 PM 38.7014 -102.6583 86° East 476 548 35,000  Level Denver Center
Tue 09:02:20 PM 38.7106 -102.4961 86° East 476 548 35,000  Level Denver Center
Tue 09:03:21 PM 38.7206 -102.3064 86° East 478 550 35,000  Level Denver Center
Tue 09:04:23 PM 38.7300 -102.1433 86° East 479 551 35,000  Level Denver Center
Tue 09:05:25 PM 38.7389 -101.9789 86° East 481 554 35,000  Level Denver Center
Tue 09:06:26 PM 38.7483 -101.7892 86° East 478 550 35,000  Level Denver Center
Tue 09:07:28 PM 38.7569 -101.6275 86° East 476 548 35,000  Level Denver Center
Tue 09:08:30 PM 38.7658 -101.4381 86° East 478 550 35,000  Level Denver Center
Tue 09:09:31 PM 38.7733 -101.2736 87° East 481 554 35,000  Level Denver Center
Tue 09:10:33 PM 38.7808 -101.1089 87° East 483 556 35,000  Level Denver Center
Tue 09:11:35 PM 38.7892 -100.9242 87° East 469 540 35,000  Level Denver Center
Tue 09:12:36 PM 38.7986 -100.7653 86° East 467 537 35,000 -49 Level Denver Center
Tue 09:13:38 PM 38.8494 -100.5772 71° East 501 577 34,900  Descending Denver Center
Tue 09:14:40 PM 38.8975 -100.4153 69° East 505 581 35,000 49 Climbing Denver Center
Tue 09:15:41 PM 38.9544 -100.2289 69° East 502 578 35,000  Level Denver Center
Tue 09:16:43 PM 39.0036 -100.0589 70° East 509 586 35,000  Level Denver Center
Tue 09:17:45 PM 39.0492 -99.9025 69° East 507 583 35,000  Level Denver Center
Tue 09:18:46 PM 39.0897 -99.7656 69° East 509 586 35,000  Level Denver Center
Tue 09:19:48 PM 39.1525 -99.5469 70° East 510 587 35,000  Level Denver Center
Tue 09:20:49 PM 39.2011 -99.3783 70° East 514 592 35,000  Level Denver Center
Tue 09:21:51 PM 39.2556 -99.1875 70° East 509 586 35,000  Level Denver Center
Tue 09:22:53 PM 39.3067 -99.0297 67° East 502 578 35,000  Level Denver Center
Tue 09:23:54 PM 39.3817 -98.8675 59° Northeast 492 566 35,000  Level Denver Center
Tue 09:24:56 PM 39.4517 -98.7142 59° Northeast 495 570 35,000  Level Denver Center
Tue 09:25:57 PM 39.5208 -98.5614 60° Northeast 493 567 35,000  Level Denver Center
Tue 09:26:59 PM 39.5878 -98.4081 60° Northeast 490 564 35,000  Level Denver Center
Tue 09:28:00 PM 39.6547 -98.2531 61° Northeast 492 566 35,000 48 Level Denver Center
Tue 09:29:03 PM 39.7139 -98.0594 68° East 484 557 35,100  Climbing Minneapolis Center
Tue 09:30:04 PM 39.7514 -97.8958 73° East 477 549 35,000 -49 Descending Minneapolis Center
Tue 09:31:06 PM 39.7903 -97.7297 73° East 479 551 35,000  Level Minneapolis Center
Tue 09:32:08 PM 39.8297 -97.5628 73° East 483 556 35,000  Level Minneapolis Center
Tue 09:33:09 PM 39.8686 -97.3950 73° East 485 558 35,000  Level Minneapolis Center
Tue 09:34:11 PM 39.9106 -97.2092 74° East 485 558 35,000  Level Minneapolis Center
Tue 09:35:12 PM 39.9483 -97.0400 74° East 486 559 35,000  Level Minneapolis Center
Tue 09:36:14 PM 39.9864 -96.8733 73° East 483 556 35,000  Level Minneapolis Center
Tue 09:37:15 PM 40.0228 -96.7061 74° East 482 555 35,000  Level Minneapolis Center
Tue 09:38:17 PM 40.0608 -96.5386 73° East 483 556 35,000  Level Minneapolis Center
Tue 09:39:18 PM 40.0994 -96.3636 74° East 495 570 35,000  Level Minneapolis Center
Tue 09:40:20 PM 40.1372 -96.1878 74° East 503 579 35,000  Level Minneapolis Center
Tue 09:41:21 PM 40.1831 -95.9761 74° East 505 581 35,000  Level Minneapolis Center
Tue 09:42:23 PM 40.2208 -95.8011 74° East 504 580 35,000  Level Minneapolis Center
Tue 09:43:24 PM 40.2578 -95.6258 75° East 503 579 35,000  Level Minneapolis Center
Tue 09:44:25 PM 40.2944 -95.4544 74° East 496 571 35,000  Level Minneapolis Center
Tue 09:45:27 PM 40.3311 -95.2811 74° East 495 570 35,000  Level Minneapolis Center
Tue 09:46:28 PM 40.3664 -95.1086 75° East 493 567 35,000  Level Minneapolis Center
Tue 09:47:29 PM 40.4019 -94.9383 75° East 489 563 35,000  Level Minneapolis Center
Tue 09:48:31 PM 40.4372 -94.7669 75° East 489 563 35,000  Level Minneapolis Center
Tue 09:49:32 PM 40.4789 -94.5586 75° East 491 565 35,000  Level Minneapolis Center
Tue 09:50:33 PM 40.5142 -94.3819 75° East 493 567 35,000  Level Minneapolis Center
Tue 09:51:34 PM 40.5447 -94.2092 77° East 492 566 35,000  Level Minneapolis Center
Tue 09:52:36 PM 40.5817 -94.0353 74° East 493 567 35,000  Level Minneapolis Center
Tue 09:53:37 PM 40.6144 -93.8611 76° East 494 568 35,000  Level Minneapolis Center
Tue 09:54:38 PM 40.6481 -93.6867 76° East 495 570 35,000  Level Minneapolis Center
Tue 09:55:40 PM 40.6844 -93.5050 75° East 502 578 35,000  Level Minneapolis Center
Tue 09:56:41 PM 40.7194 -93.3250 76° East 507 583 35,000  Level Minneapolis Center
Tue 09:57:42 PM 40.7522 -93.1503 76° East 503 579 35,000  Level Minneapolis Center
Tue 09:58:44 PM 40.7928 -92.9353 76° East 503 579 35,000  Level Minneapolis Center
Tue 09:59:41 PM 40.8192 -92.7897 76° East 505 581 35,000  Level Chicago Center
Tue 10:00:42 PM 40.8528 -92.6061 76° East 511 588 35,000  Level Chicago Center
Tue 10:01:43 PM 40.8856 -92.4244 77° East 511 588 35,000  Level Chicago Center
Tue 10:02:45 PM 40.9247 -92.2097 76° East 505 581 35,000  Level Chicago Center
Tue 10:03:46 PM 40.9569 -92.0281 77° East 510 587 35,000  Level Chicago Center
Tue 10:04:47 PM 40.9894 -91.8447 77° East 512 589 35,000  Level Chicago Center
Tue 10:05:49 PM 41.0219 -91.6569 77° East 514 592 35,000  Level Chicago Center
Tue 10:06:50 PM 41.0533 -91.4736 77° East 509 586 35,000  Level Chicago Center
Tue 10:07:51 PM 41.0850 -91.2886 77° East 513 590 35,000  Level Chicago Center
Tue 10:08:53 PM 41.1161 -91.1022 77° East 517 595 35,000  Level Chicago Center
Tue 10:09:54 PM 41.1475 -90.9164 77° East 517 595 35,000  Level Chicago Center
Tue 10:10:55 PM 41.1778 -90.7311 78° East 514 592 35,000  Level Chicago Center
Tue 10:11:57 PM 41.2083 -90.5439 78° East 516 594 35,000  Level Chicago Center
Tue 10:12:58 PM 41.2389 -90.3542 78° East 522 601 35,000  Level Chicago Center
Tue 10:13:59 PM 41.2708 -90.1617 77° East 528 608 35,000  Level Chicago Center
Tue 10:15:00 PM 41.3072 -89.9322 78° East 527 606 35,000  Level Chicago Center
Tue 10:16:02 PM 41.3369 -89.7433 78° East 521 600 35,000  Level Chicago Center
Tue 10:17:03 PM 41.3653 -89.5522 79° East 523 602 35,000  Level Chicago Center
Tue 10:18:04 PM 41.3944 -89.3653 78° East 516 594 35,000  Level Chicago Center
Tue 10:19:06 PM 41.4206 -89.1861 79° East 518 596 35,000  Level Chicago Center
Tue 10:20:07 PM 41.4478 -88.9986 79° East 516 594 35,000  Level Chicago Center
Tue 10:21:08 PM 41.4756 -88.8108 79° East 518 596 35,000  Level Chicago Center
Tue 10:22:10 PM 41.5081 -88.5875 79° East 514 592 35,000  Level Chicago Center
Tue 10:23:11 PM 41.5350 -88.3992 79° East 516 594 35,000  Level Chicago Center
Tue 10:24:12 PM 41.5600 -88.2111 80° East 511 588 35,000  Level Chicago Center
Tue 10:25:14 PM 41.5825 -88.0175 81° East 516 594 35,000  Level Chicago Center
Tue 10:26:15 PM 41.6050 -87.8264 81° East 516 594 35,000  Level Chicago Center
Tue 10:27:16 PM 41.6258 -87.6367 82° East 515 593 35,000 -146 Level Chicago Center
Tue 10:28:18 PM 41.6467 -87.4483 82° East 514 592 34,700 -585 Descending Chicago Center
Tue 10:29:19 PM 41.6686 -87.2614 81° East 512 589 33,800 -836 Descending Chicago Center
Tue 10:30:20 PM 41.6889 -87.0736 82° East 513 590 33,000 -390 Descending Chicago Center
Tue 10:31:22 PM 41.7414 -86.8972 68° East 525 604 33,000 -293 Level Chicago Center
Tue 10:32:23 PM 41.8167 -86.7381 58° Northeast 512 589 32,400 -934 Descending Chicago Center
Tue 10:33:24 PM 41.9047 -86.5450 58° Northeast 515 593 31,100 -1,180 Descending Chicago Center
Tue 10:34:25 PM 41.9581 -86.3661 68° East 520 598 30,000 -1,024 Descending Chicago Center
Tue 10:35:27 PM 41.9683 -86.1708 86° East 527 606 29,000 -927 Descending Chicago Center
Tue 10:36:28 PM 41.9617 -85.9744 93° East 529 609 28,100 -934 Descending Chicago Center
Tue 10:37:29 PM 41.9781 -85.7772 84° East 527 606 27,100 -976 Descending Chicago Center
Tue 10:38:31 PM 41.9958 -85.5797 83° East 528 608 26,100 -1,073 Descending Chicago Center
Tue 10:39:32 PM 42.0133 -85.3639 84° East 530 610 24,900 -1,745 Descending Chicago Center
Tue 10:40:21 PM 42.0264 -85.2267 83° East 529 609 22,900 -3,138 Descending Cleveland Center
Tue 10:41:21 PM 42.0428 -85.0267 84° East 512 589 19,200 -1,950 Descending Cleveland Center
Tue 10:42:21 PM 42.0222 -84.8544 99° East 474 545 19,000 -350 Descending Cleveland Center
Tue 10:43:21 PM 41.9825 -84.6869 108° East 463 533 18,500 -700 Descending Cleveland Center
Tue 10:44:21 PM 41.9461 -84.5339 108° East 448 516 17,600 -1,311 Descending Cleveland Center
Tue 10:45:20 PM 41.9075 -84.3836 109° East 434 499 15,900 -1,800 Descending Cleveland Center
Tue 10:46:21 PM 41.8742 -84.2533 109° East 416 479 14,000 -1,686 Descending Cleveland Center
Tue 10:47:21 PM 41.8431 -84.1150 107° East 403 464 12,500 -1,000 Descending Cleveland Center
Tue 10:48:21 PM 41.8447 -83.9922 89° East 353 406 12,000 -714 Descending Cleveland Center
Tue 10:48:45 PM 41.8856 -83.9442 41° Northeast 332 382 11,500 -1,220 Descending Cleveland Center
Tue 10:49:20 PM 41.9058 -83.8978 60° Northeast 311 358 10,800 -1,636 Descending Cleveland Center
Tue 10:49:40 PM 41.9342 -83.8547 48° Northeast 334 384 10,000 -1,574 Descending Cleveland Center
Tue 10:50:21 PM 41.9628 -83.7975 56° Northeast 311 358 9,200 -1,600 Descending Cleveland Center
Tue 10:50:40 PM 41.9664 -83.7417 85° East 326 375 8,400 -1,831 Descending Cleveland Center
Tue 10:51:20 PM 41.9539 -83.6686 103° East 311 358 7,400 -1,742 Descending Cleveland Center
Tue 10:51:42 PM 41.9528 -83.6294 92° East 307 353 6,600 -2,164 Descending Cleveland Center
Tue 10:52:21 PM 41.9753 -83.5661 64° Northeast 300 345 5,200 -1,800 Descending Cleveland Center
Tue 10:52:42 PM 41.9969 -83.5364 46° Northeast 270 311 4,800 -900 Descending Cleveland Center
Tue 10:53:21 PM 42.0331 -83.5075 31° Northeast 253 291 4,300 -889 Descending Cleveland Center
Tue 10:53:36 PM 42.0542 -83.4972 20° North 239 275 4,000 -1,220 Descending Cleveland Center
Tue 10:54:20 PM 42.0925 -83.4653 32° Northeast 231 266 3,100 -1,096 Descending Cleveland Center
Tue 10:55:20 PM 42.1372 -83.4311 30° Northeast 211 243 2,100 -864 Descending Cleveland Center
Tue 10:56:32 PM 42.1797 -83.4019 27° Northeast 130 150 1,200 -750 Descending Cleveland Center
Tue 10:58:00 PM 42.2000 -83.3500 48° Northeast  Level FlightAware Approximate
Tue 11:05:00 PM 42.2124 -83.3534 48° Northeast  Level Estimated
Tue 11:06:00 PM 42.2124 -83.3534 48° Northeast  Level Estimated

Login

Don't have an account? Register now (free) for customized features, flight alerts, and more!